sensor_id;sensor_type;location;lat;lon;timestamp;temperature;humidity
32865;DHT22;19219;44.500;11.188;2022-09-03T00:02:15;20.90;99.90
32865;DHT22;19219;44.500;11.188;2022-09-03T00:10:34;20.70;99.90
32865;DHT22;19219;44.500;11.188;2022-09-03T00:13:03;20.70;99.90
32865;DHT22;19219;44.500;11.188;2022-09-03T00:15:32;20.60;99.90
32865;DHT22;19219;44.500;11.188;2022-09-03T00:18:16;20.50;99.90
32865;DHT22;19219;44.500;11.188;2022-09-03T00:20:50;20.50;99.90
32865;DHT22;19219;44.500;11.188;2022-09-03T00:23:22;20.40;99.90
32865;DHT22;19219;44.500;11.188;2022-09-03T00:26:00;20.40;99.90
32865;DHT22;19219;44.500;11.188;2022-09-03T00:31:39;20.60;99.90
32865;DHT22;19219;44.500;11.188;2022-09-03T00:36:52;20.50;99.90
32865;DHT22;19219;44.500;11.188;2022-09-03T00:39:20;20.50;99.90
32865;DHT22;19219;44.500;11.188;2022-09-03T00:47:38;20.20;99.90
32865;DHT22;19219;44.500;11.188;2022-09-03T00:55:56;20.10;99.90
32865;DHT22;19219;44.500;11.188;2022-09-03T00:58:58;20.10;99.90
32865;DHT22;19219;44.500;11.188;2022-09-03T01:17:39;20.20;99.90
32865;DHT22;19219;44.500;11.188;2022-09-03T01:25:50;20.30;99.90
32865;DHT22;19219;44.500;11.188;2022-09-03T01:36:40;20.00;99.90
32865;DHT22;19219;44.500;11.188;2022-09-03T01:39:33;19.90;99.90
32865;DHT22;19219;44.500;11.188;2022-09-03T01:42:13;19.90;99.90
32865;DHT22;19219;44.500;11.188;2022-09-03T01:44:55;19.80;99.90
32865;DHT22;19219;44.500;11.188;2022-09-03T01:47:51;19.80;99.90
32865;DHT22;19219;44.500;11.188;2022-09-03T01:52:53;19.80;99.90
32865;DHT22;19219;44.500;11.188;2022-09-03T01:55:29;19.80;99.90
32865;DHT22;19219;44.500;11.188;2022-09-03T01:58:06;19.90;99.90
32865;DHT22;19219;44.500;11.188;2022-09-03T02:00:39;19.90;99.90
32865;DHT22;19219;44.500;11.188;2022-09-03T02:03:08;19.90;99.90
32865;DHT22;19219;44.500;11.188;2022-09-03T02:05:34;20.00;99.90
32865;DHT22;19219;44.500;11.188;2022-09-03T02:08:02;20.10;99.90
32865;DHT22;19219;44.500;11.188;2022-09-03T02:13:04;20.20;99.90
32865;DHT22;19219;44.500;11.188;2022-09-03T02:15:31;20.10;99.90
32865;DHT22;19219;44.500;11.188;2022-09-03T02:18:00;20.10;99.90
32865;DHT22;19219;44.500;11.188;2022-09-03T02:20:28;20.00;99.90
32865;DHT22;19219;44.500;11.188;2022-09-03T02:22:55;19.90;99.90
32865;DHT22;19219;44.500;11.188;2022-09-03T02:25:25;19.80;99.90
32865;DHT22;19219;44.500;11.188;2022-09-03T02:27:54;19.70;99.90
32865;DHT22;19219;44.500;11.188;2022-09-03T02:30:20;19.50;99.90
32865;DHT22;19219;44.500;11.188;2022-09-03T02:32:45;19.40;99.90
32865;DHT22;19219;44.500;11.188;2022-09-03T02:35:12;19.40;99.90
32865;DHT22;19219;44.500;11.188;2022-09-03T02:37:37;19.40;99.90
32865;DHT22;19219;44.500;11.188;2022-09-03T02:40:03;19.30;99.90
32865;DHT22;19219;44.500;11.188;2022-09-03T02:42:34;19.40;99.90
32865;DHT22;19219;44.500;11.188;2022-09-03T02:45:15;19.40;99.90
32865;DHT22;19219;44.500;11.188;2022-09-03T02:47:44;19.40;99.90
32865;DHT22;19219;44.500;11.188;2022-09-03T02:50:11;19.40;99.90
32865;DHT22;19219;44.500;11.188;2022-09-03T02:52:36;19.50;99.90
32865;DHT22;19219;44.500;11.188;2022-09-03T02:55:02;19.40;99.90
32865;DHT22;19219;44.500;11.188;2022-09-03T02:57:28;19.40;99.90
32865;DHT22;19219;44.500;11.188;2022-09-03T02:59:54;19.40;99.90
32865;DHT22;19219;44.500;11.188;2022-09-03T03:02:19;19.40;99.90
32865;DHT22;19219;44.500;11.188;2022-09-03T03:04:45;19.50;99.90
32865;DHT22;19219;44.500;11.188;2022-09-03T03:07:11;19.40;99.90
32865;DHT22;19219;44.500;11.188;2022-09-03T03:09:36;19.50;99.90
32865;DHT22;19219;44.500;11.188;2022-09-03T03:12:02;19.50;99.90
32865;DHT22;19219;44.500;11.188;2022-09-03T03:14:28;19.40;99.90
32865;DHT22;19219;44.500;11.188;2022-09-03T03:16:54;19.40;99.90
32865;DHT22;19219;44.500;11.188;2022-09-03T03:19:19;19.50;99.90
32865;DHT22;19219;44.500;11.188;2022-09-03T03:21:45;19.50;99.90
32865;DHT22;19219;44.500;11.188;2022-09-03T03:24:11;19.50;99.90
32865;DHT22;19219;44.500;11.188;2022-09-03T03:26:36;19.40;99.90
32865;DHT22;19219;44.500;11.188;2022-09-03T03:29:03;19.40;99.90
32865;DHT22;19219;44.500;11.188;2022-09-03T03:31:29;19.30;99.90
32865;DHT22;19219;44.500;11.188;2022-09-03T03:33:57;19.30;99.90
32865;DHT22;19219;44.500;11.188;2022-09-03T03:36:25;19.20;99.90
32865;DHT22;19219;44.500;11.188;2022-09-03T03:38:55;19.10;99.90
32865;DHT22;19219;44.500;11.188;2022-09-03T03:41:23;19.10;99.90
32865;DHT22;19219;44.500;11.188;2022-09-03T03:43:53;19.00;99.90
32865;DHT22;19219;44.500;11.188;2022-09-03T03:46:20;19.00;99.90
32865;DHT22;19219;44.500;11.188;2022-09-03T03:48:50;19.00;99.90
32865;DHT22;19219;44.500;11.188;2022-09-03T03:51:17;18.80;99.90
32865;DHT22;19219;44.500;11.188;2022-09-03T03:53:43;18.80;99.90
32865;DHT22;19219;44.500;11.188;2022-09-03T03:56:11;18.80;99.90
32865;DHT22;19219;44.500;11.188;2022-09-03T03:58:38;18.80;99.90
32865;DHT22;19219;44.500;11.188;2022-09-03T04:01:18;18.80;99.90
32865;DHT22;19219;44.500;11.188;2022-09-03T04:03:44;18.80;99.90
32865;DHT22;19219;44.500;11.188;2022-09-03T04:06:14;18.80;99.90
32865;DHT22;19219;44.500;11.188;2022-09-03T04:08:41;18.80;99.90
32865;DHT22;19219;44.500;11.188;2022-09-03T04:11:09;18.80;99.90
32865;DHT22;19219;44.500;11.188;2022-09-03T04:13:37;18.80;99.90
32865;DHT22;19219;44.500;11.188;2022-09-03T04:16:07;18.80;99.90
32865;DHT22;19219;44.500;11.188;2022-09-03T04:18:35;18.90;99.90
32865;DHT22;19219;44.500;11.188;2022-09-03T04:21:12;18.80;99.90
32865;DHT22;19219;44.500;11.188;2022-09-03T04:23:40;18.70;99.90
32865;DHT22;19219;44.500;11.188;2022-09-03T04:26:08;18.70;99.90
32865;DHT22;19219;44.500;11.188;2022-09-03T04:28:34;18.80;99.90
32865;DHT22;19219;44.500;11.188;2022-09-03T04:31:08;18.80;99.90
32865;DHT22;19219;44.500;11.188;2022-09-03T04:33:35;18.90;99.90
32865;DHT22;19219;44.500;11.188;2022-09-03T04:36:03;19.00;99.90
32865;DHT22;19219;44.500;11.188;2022-09-03T04:38:30;19.10;99.90
32865;DHT22;19219;44.500;11.188;2022-09-03T04:40:57;19.10;99.90
32865;DHT22;19219;44.500;11.188;2022-09-03T04:43:24;19.20;99.90
32865;DHT22;19219;44.500;11.188;2022-09-03T04:45:50;19.30;99.90
32865;DHT22;19219;44.500;11.188;2022-09-03T04:48:16;19.20;99.90
32865;DHT22;19219;44.500;11.188;2022-09-03T04:50:41;19.20;99.90
32865;DHT22;19219;44.500;11.188;2022-09-03T04:53:07;19.00;99.90
32865;DHT22;19219;44.500;11.188;2022-09-03T04:55:34;18.90;99.90
32865;DHT22;19219;44.500;11.188;2022-09-03T04:58:00;18.80;99.90
32865;DHT22;19219;44.500;11.188;2022-09-03T05:00:26;18.80;99.90
32865;DHT22;19219;44.500;11.188;2022-09-03T05:02:52;18.80;99.90
32865;DHT22;19219;44.500;11.188;2022-09-03T05:05:17;18.80;99.90
32865;DHT22;19219;44.500;11.188;2022-09-03T05:07:43;18.90;99.90
32865;DHT22;19219;44.500;11.188;2022-09-03T05:10:11;18.80;99.90
32865;DHT22;19219;44.500;11.188;2022-09-03T05:12:37;18.90;99.90
32865;DHT22;19219;44.500;11.188;2022-09-03T05:15:04;18.80;99.90
32865;DHT22;19219;44.500;11.188;2022-09-03T05:17:30;18.80;99.90
32865;DHT22;19219;44.500;11.188;2022-09-03T05:19:55;18.80;99.90
32865;DHT22;19219;44.500;11.188;2022-09-03T05:22:21;18.80;99.90
32865;DHT22;19219;44.500;11.188;2022-09-03T05:24:47;18.80;99.90
32865;DHT22;19219;44.500;11.188;2022-09-03T05:27:16;18.80;99.90
32865;DHT22;19219;44.500;11.188;2022-09-03T05:29:42;19.00;99.90
32865;DHT22;19219;44.500;11.188;2022-09-03T05:32:09;19.00;99.90
32865;DHT22;19219;44.500;11.188;2022-09-03T05:34:34;19.00;99.90
32865;DHT22;19219;44.500;11.188;2022-09-03T05:37:00;19.00;99.90
32865;DHT22;19219;44.500;11.188;2022-09-03T05:39:26;19.00;99.90
32865;DHT22;19219;44.500;11.188;2022-09-03T05:41:52;19.00;99.90
32865;DHT22;19219;44.500;11.188;2022-09-03T05:44:18;19.10;99.90
32865;DHT22;19219;44.500;11.188;2022-09-03T05:46:46;19.20;99.90
32865;DHT22;19219;44.500;11.188;2022-09-03T05:49:11;19.30;99.90
32865;DHT22;19219;44.500;11.188;2022-09-03T05:51:37;19.40;99.90
32865;DHT22;19219;44.500;11.188;2022-09-03T05:54:07;19.40;99.90
32865;DHT22;19219;44.500;11.188;2022-09-03T05:56:33;19.50;99.90
32865;DHT22;19219;44.500;11.188;2022-09-03T05:59:02;19.60;99.90
32865;DHT22;19219;44.500;11.188;2022-09-03T06:01:40;19.80;99.90
32865;DHT22;19219;44.500;11.188;2022-09-03T06:04:13;19.90;99.90
32865;DHT22;19219;44.500;11.188;2022-09-03T06:06:42;19.90;99.90
32865;DHT22;19219;44.500;11.188;2022-09-03T06:09:19;20.00;99.90
32865;DHT22;19219;44.500;11.188;2022-09-03T06:11:46;20.10;99.90
32865;DHT22;19219;44.500;11.188;2022-09-03T06:14:14;20.20;99.90
32865;DHT22;19219;44.500;11.188;2022-09-03T06:16:45;20.20;99.90
32865;DHT22;19219;44.500;11.188;2022-09-03T06:19:14;20.30;99.90
32865;DHT22;19219;44.500;11.188;2022-09-03T06:21:42;20.40;99.90
32865;DHT22;19219;44.500;11.188;2022-09-03T06:24:13;20.50;99.90
32865;DHT22;19219;44.500;11.188;2022-09-03T06:26:39;20.60;99.90
32865;DHT22;19219;44.500;11.188;2022-09-03T06:29:05;20.70;99.90
32865;DHT22;19219;44.500;11.188;2022-09-03T06:31:31;20.80;99.90
32865;DHT22;19219;44.500;11.188;2022-09-03T06:33:57;20.90;99.90
32865;DHT22;19219;44.500;11.188;2022-09-03T06:36:23;21.00;99.90
32865;DHT22;19219;44.500;11.188;2022-09-03T06:38:52;21.10;99.90
32865;DHT22;19219;44.500;11.188;2022-09-03T06:41:20;21.10;99.90
32865;DHT22;19219;44.500;11.188;2022-09-03T06:43:59;21.10;99.90
32865;DHT22;19219;44.500;11.188;2022-09-03T06:46:33;21.20;99.90
32865;DHT22;19219;44.500;11.188;2022-09-03T06:48:59;21.30;99.90
32865;DHT22;19219;44.500;11.188;2022-09-03T06:51:27;21.40;99.90
32865;DHT22;19219;44.500;11.188;2022-09-03T06:53:58;21.60;99.90
32865;DHT22;19219;44.500;11.188;2022-09-03T06:56:24;21.80;99.90
32865;DHT22;19219;44.500;11.188;2022-09-03T06:58:55;22.10;99.90
32865;DHT22;19219;44.500;11.188;2022-09-03T07:01:24;22.30;99.90
32865;DHT22;19219;44.500;11.188;2022-09-03T07:03:55;22.50;99.90
32865;DHT22;19219;44.500;11.188;2022-09-03T07:06:21;22.90;99.90
32865;DHT22;19219;44.500;11.188;2022-09-03T07:08:47;23.20;99.90
32865;DHT22;19219;44.500;11.188;2022-09-03T07:11:18;23.70;99.90
32865;DHT22;19219;44.500;11.188;2022-09-03T07:13:48;24.00;99.90
32865;DHT22;19219;44.500;11.188;2022-09-03T07:16:17;24.20;99.90
32865;DHT22;19219;44.500;11.188;2022-09-03T07:18:43;24.20;99.90
32865;DHT22;19219;44.500;11.188;2022-09-03T07:21:21;24.20;99.90
32865;DHT22;19219;44.500;11.188;2022-09-03T07:23:48;24.10;99.90
32865;DHT22;19219;44.500;11.188;2022-09-03T07:26:38;24.20;99.90
32865;DHT22;19219;44.500;11.188;2022-09-03T07:29:05;24.00;99.90
32865;DHT22;19219;44.500;11.188;2022-09-03T07:31:39;24.00;99.90
32865;DHT22;19219;44.500;11.188;2022-09-03T07:34:07;23.90;99.90
32865;DHT22;19219;44.500;11.188;2022-09-03T07:36:37;23.90;99.90
32865;DHT22;19219;44.500;11.188;2022-09-03T07:39:04;23.80;99.90
32865;DHT22;19219;44.500;11.188;2022-09-03T07:41:29;23.90;99.90
32865;DHT22;19219;44.500;11.188;2022-09-03T07:43:58;24.00;99.90
32865;DHT22;19219;44.500;11.188;2022-09-03T07:46:34;24.00;99.90
32865;DHT22;19219;44.500;11.188;2022-09-03T07:49:01;24.30;99.90
32865;DHT22;19219;44.500;11.188;2022-09-03T07:51:30;24.50;99.90
32865;DHT22;19219;44.500;11.188;2022-09-03T07:53:58;25.20;99.90
32865;DHT22;19219;44.500;11.188;2022-09-03T07:56:25;25.60;99.90
32865;DHT22;19219;44.500;11.188;2022-09-03T07:58:56;26.10;99.90
32865;DHT22;19219;44.500;11.188;2022-09-03T08:01:23;26.40;99.90
32865;DHT22;19219;44.500;11.188;2022-09-03T08:03:50;26.70;99.90
32865;DHT22;19219;44.500;11.188;2022-09-03T08:06:19;26.80;99.90
32865;DHT22;19219;44.500;11.188;2022-09-03T08:08:45;26.60;99.90
32865;DHT22;19219;44.500;11.188;2022-09-03T08:11:13;26.30;99.90
32865;DHT22;19219;44.500;11.188;2022-09-03T08:13:44;25.90;99.90
32865;DHT22;19219;44.500;11.188;2022-09-03T08:16:11;25.30;99.90
32865;DHT22;19219;44.500;11.188;2022-09-03T08:18:37;25.00;99.90
32865;DHT22;19219;44.500;11.188;2022-09-03T08:21:12;24.90;99.90
32865;DHT22;19219;44.500;11.188;2022-09-03T08:23:41;24.70;99.90
32865;DHT22;19219;44.500;11.188;2022-09-03T08:26:07;24.50;99.90
32865;DHT22;19219;44.500;11.188;2022-09-03T08:28:35;24.50;99.90
32865;DHT22;19219;44.500;11.188;2022-09-03T08:33:40;24.40;99.90
32865;DHT22;19219;44.500;11.188;2022-09-03T08:36:08;24.30;99.90
32865;DHT22;19219;44.500;11.188;2022-09-03T08:38:35;24.20;99.90
32865;DHT22;19219;44.500;11.188;2022-09-03T08:41:31;24.00;99.90
32865;DHT22;19219;44.500;11.188;2022-09-03T08:47:55;24.30;99.90
32865;DHT22;19219;44.500;11.188;2022-09-03T08:52:49;24.60;99.90
32865;DHT22;19219;44.500;11.188;2022-09-03T08:55:30;24.60;99.90
32865;DHT22;19219;44.500;11.188;2022-09-03T08:58:02;24.70;99.90
32865;DHT22;19219;44.500;11.188;2022-09-03T09:00:56;24.70;99.90
32865;DHT22;19219;44.500;11.188;2022-09-03T09:03:52;24.60;99.90
32865;DHT22;19219;44.500;11.188;2022-09-03T09:09:43;24.40;99.90
32865;DHT22;19219;44.500;11.188;2022-09-03T09:15:09;24.60;99.90
32865;DHT22;19219;44.500;11.188;2022-09-03T09:23:14;25.10;99.90
32865;DHT22;19219;44.500;11.188;2022-09-03T09:25:49;25.00;99.90
32865;DHT22;19219;44.500;11.188;2022-09-03T09:28:21;25.00;99.90
32865;DHT22;19219;44.500;11.188;2022-09-03T09:30:50;24.80;99.90
32865;DHT22;19219;44.500;11.188;2022-09-03T09:33:17;24.80;99.90
32865;DHT22;19219;44.500;11.188;2022-09-03T09:35:44;24.80;99.90
32865;DHT22;19219;44.500;11.188;2022-09-03T09:38:10;24.80;99.90
32865;DHT22;19219;44.500;11.188;2022-09-03T09:40:42;24.80;99.90
32865;DHT22;19219;44.500;11.188;2022-09-03T09:43:14;24.80;99.90
32865;DHT22;19219;44.500;11.188;2022-09-03T09:45:48;24.90;99.90
32865;DHT22;19219;44.500;11.188;2022-09-03T09:48:33;24.80;99.90
32865;DHT22;19219;44.500;11.188;2022-09-03T09:51:10;24.80;99.90
32865;DHT22;19219;44.500;11.188;2022-09-03T09:53:36;24.70;99.90
32865;DHT22;19219;44.500;11.188;2022-09-03T09:56:02;24.70;99.90
32865;DHT22;19219;44.500;11.188;2022-09-03T09:58:29;24.70;99.90
32865;DHT22;19219;44.500;11.188;2022-09-03T10:01:00;24.80;99.90
32865;DHT22;19219;44.500;11.188;2022-09-03T10:03:31;24.70;99.90
32865;DHT22;19219;44.500;11.188;2022-09-03T10:06:05;24.70;99.90
32865;DHT22;19219;44.500;11.188;2022-09-03T10:08:51;24.70;99.90
32865;DHT22;19219;44.500;11.188;2022-09-03T10:11:18;24.70;99.90
32865;DHT22;19219;44.500;11.188;2022-09-03T10:13:46;24.70;99.90
32865;DHT22;19219;44.500;11.188;2022-09-03T10:16:28;24.70;99.90
32865;DHT22;19219;44.500;11.188;2022-09-03T10:19:22;24.80;99.90
32865;DHT22;19219;44.500;11.188;2022-09-03T10:24:55;24.70;99.90
32865;DHT22;19219;44.500;11.188;2022-09-03T10:27:22;24.70;99.90
32865;DHT22;19219;44.500;11.188;2022-09-03T10:29:48;24.80;99.90
32865;DHT22;19219;44.500;11.188;2022-09-03T10:40:16;24.80;99.90
32865;DHT22;19219;44.500;11.188;2022-09-03T10:46:01;24.70;99.90
32865;DHT22;19219;44.500;11.188;2022-09-03T10:48:57;24.60;99.90
32865;DHT22;19219;44.500;11.188;2022-09-03T10:51:32;24.60;99.90
32865;DHT22;19219;44.500;11.188;2022-09-03T10:54:17;24.70;99.90
32865;DHT22;19219;44.500;11.188;2022-09-03T10:57:15;24.60;99.90
32865;DHT22;19219;44.500;11.188;2022-09-03T11:00:00;24.70;99.90
32865;DHT22;19219;44.500;11.188;2022-09-03T11:08:26;24.80;99.90
32865;DHT22;19219;44.500;11.188;2022-09-03T11:11:20;24.90;99.90
32865;DHT22;19219;44.500;11.188;2022-09-03T11:13:55;25.10;99.90
32865;DHT22;19219;44.500;11.188;2022-09-03T11:16:33;25.20;99.90
32865;DHT22;19219;44.500;11.188;2022-09-03T11:19:12;25.10;99.90
32865;DHT22;19219;44.500;11.188;2022-09-03T11:21:41;25.10;99.90
32865;DHT22;19219;44.500;11.188;2022-09-03T11:24:23;25.20;99.90
32865;DHT22;19219;44.500;11.188;2022-09-03T11:30:02;25.20;99.90
32865;DHT22;19219;44.500;11.188;2022-09-03T11:35:23;25.30;99.90
32865;DHT22;19219;44.500;11.188;2022-09-03T11:38:03;25.60;99.90
32865;DHT22;19219;44.500;11.188;2022-09-03T11:40:35;25.80;99.90
32865;DHT22;19219;44.500;11.188;2022-09-03T11:46:02;26.20;99.90
32865;DHT22;19219;44.500;11.188;2022-09-03T11:48:32;26.40;99.90
32865;DHT22;19219;44.500;11.188;2022-09-03T11:50:58;26.40;99.90
32865;DHT22;19219;44.500;11.188;2022-09-03T11:53:31;26.40;99.90
32865;DHT22;19219;44.500;11.188;2022-09-03T11:56:19;26.40;99.90
32865;DHT22;19219;44.500;11.188;2022-09-03T11:58:45;26.50;99.90
32865;DHT22;19219;44.500;11.188;2022-09-03T12:01:14;26.50;99.90
32865;DHT22;19219;44.500;11.188;2022-09-03T12:06:44;26.70;99.90
32865;DHT22;19219;44.500;11.188;2022-09-03T12:15:07;27.10;99.90
32865;DHT22;19219;44.500;11.188;2022-09-03T12:17:56;27.00;99.90
32865;DHT22;19219;44.500;11.188;2022-09-03T12:20:42;26.90;99.90
32865;DHT22;19219;44.500;11.188;2022-09-03T12:23:12;26.90;99.90
32865;DHT22;19219;44.500;11.188;2022-09-03T12:25:45;27.00;99.90
32865;DHT22;19219;44.500;11.188;2022-09-03T12:28:17;27.20;99.90
32865;DHT22;19219;44.500;11.188;2022-09-03T12:30:45;27.40;99.90
32865;DHT22;19219;44.500;11.188;2022-09-03T12:33:15;27.50;99.90
32865;DHT22;19219;44.500;11.188;2022-09-03T12:35:41;27.50;99.90
32865;DHT22;19219;44.500;11.188;2022-09-03T12:38:08;27.70;99.90
32865;DHT22;19219;44.500;11.188;2022-09-03T12:40:41;27.70;99.90
32865;DHT22;19219;44.500;11.188;2022-09-03T12:43:12;27.80;99.90
32865;DHT22;19219;44.500;11.188;2022-09-03T12:45:43;27.90;99.90
32865;DHT22;19219;44.500;11.188;2022-09-03T12:48:13;27.80;99.90
32865;DHT22;19219;44.500;11.188;2022-09-03T12:50:43;27.90;99.90
32865;DHT22;19219;44.500;11.188;2022-09-03T12:53:21;27.70;99.90
32865;DHT22;19219;44.500;11.188;2022-09-03T12:55:52;28.00;99.90
32865;DHT22;19219;44.500;11.188;2022-09-03T12:58:36;28.00;99.90
32865;DHT22;19219;44.500;11.188;2022-09-03T13:01:10;28.00;99.90
32865;DHT22;19219;44.500;11.188;2022-09-03T13:03:53;27.90;99.90
32865;DHT22;19219;44.500;11.188;2022-09-03T13:06:32;27.90;99.90
32865;DHT22;19219;44.500;11.188;2022-09-03T13:09:04;27.80;99.90
32865;DHT22;19219;44.500;11.188;2022-09-03T13:11:33;27.80;99.90
32865;DHT22;19219;44.500;11.188;2022-09-03T13:14:04;27.80;99.90
32865;DHT22;19219;44.500;11.188;2022-09-03T13:19:26;28.00;99.90
32865;DHT22;19219;44.500;11.188;2022-09-03T13:31:18;27.30;99.90
32865;DHT22;19219;44.500;11.188;2022-09-03T13:33:37;27.20;99.90
32865;DHT22;19219;44.500;11.188;2022-09-03T13:36:20;27.10;99.90
32865;DHT22;19219;44.500;11.188;2022-09-03T13:39:11;26.90;99.90
32865;DHT22;19219;44.500;11.188;2022-09-03T13:41:47;26.80;99.90
32865;DHT22;19219;44.500;11.188;2022-09-03T13:53:13;26.70;99.90
32865;DHT22;19219;44.500;11.188;2022-09-03T13:55:48;26.70;99.90
32865;DHT22;19219;44.500;11.188;2022-09-03T13:58:40;26.70;99.90
32865;DHT22;19219;44.500;11.188;2022-09-03T14:01:22;26.70;99.90
32865;DHT22;19219;44.500;11.188;2022-09-03T14:03:54;26.60;99.90
32865;DHT22;19219;44.500;11.188;2022-09-03T14:06:39;26.60;99.90
32865;DHT22;19219;44.500;11.188;2022-09-03T14:09:41;26.50;99.90
32865;DHT22;19219;44.500;11.188;2022-09-03T14:12:18;26.40;99.90
32865;DHT22;19219;44.500;11.188;2022-09-03T14:15:19;26.40;99.90
32865;DHT22;19219;44.500;11.188;2022-09-03T14:26:13;26.30;99.90
32865;DHT22;19219;44.500;11.188;2022-09-03T14:28:49;26.30;99.90
32865;DHT22;19219;44.500;11.188;2022-09-03T14:39:53;26.80;99.90
32865;DHT22;19219;44.500;11.188;2022-09-03T14:48:11;27.00;99.90
32865;DHT22;19219;44.500;11.188;2022-09-03T14:53:42;27.10;99.90
32865;DHT22;19219;44.500;11.188;2022-09-03T14:59:04;26.80;99.90
32865;DHT22;19219;44.500;11.188;2022-09-03T15:01:34;26.70;99.90
32865;DHT22;19219;44.500;11.188;2022-09-03T15:04:11;26.70;99.90
32865;DHT22;19219;44.500;11.188;2022-09-03T15:09:59;26.80;99.90
32865;DHT22;19219;44.500;11.188;2022-09-03T15:18:31;27.20;99.90
32865;DHT22;19219;44.500;11.188;2022-09-03T15:27:08;27.40;99.90
32865;DHT22;19219;44.500;11.188;2022-09-03T15:29:48;27.60;99.90
32865;DHT22;19219;44.500;11.188;2022-09-03T15:35:06;27.50;99.90
32865;DHT22;19219;44.500;11.188;2022-09-03T15:38:00;27.50;99.90
32865;DHT22;19219;44.500;11.188;2022-09-03T15:43:16;27.30;99.90
32865;DHT22;19219;44.500;11.188;2022-09-03T15:51:12;27.10;99.90
32865;DHT22;19219;44.500;11.188;2022-09-03T15:53:51;27.10;99.90
32865;DHT22;19219;44.500;11.188;2022-09-03T15:59:02;27.00;99.90
32865;DHT22;19219;44.500;11.188;2022-09-03T16:01:47;26.90;99.90
32865;DHT22;19219;44.500;11.188;2022-09-03T16:06:58;26.70;99.90
32865;DHT22;19219;44.500;11.188;2022-09-03T16:17:56;26.70;99.90
32865;DHT22;19219;44.500;11.188;2022-09-03T16:23:19;26.60;99.90
32865;DHT22;19219;44.500;11.188;2022-09-03T16:28:53;26.60;99.90
32865;DHT22;19219;44.500;11.188;2022-09-03T16:31:48;26.50;99.90
32865;DHT22;19219;44.500;11.188;2022-09-03T16:37:54;26.40;99.90
32865;DHT22;19219;44.500;11.188;2022-09-03T16:42:52;26.30;99.90
32865;DHT22;19219;44.500;11.188;2022-09-03T16:45:26;26.30;99.90
32865;DHT22;19219;44.500;11.188;2022-09-03T16:53:36;26.30;99.90
32865;DHT22;19219;44.500;11.188;2022-09-03T16:59:15;26.20;99.90
32865;DHT22;19219;44.500;11.188;2022-09-03T17:02:05;26.10;99.90
32865;DHT22;19219;44.500;11.188;2022-09-03T17:07:32;26.10;99.90
32865;DHT22;19219;44.500;11.188;2022-09-03T17:10:16;26.10;99.90
32865;DHT22;19219;44.500;11.188;2022-09-03T17:13:05;26.00;99.90
32865;DHT22;19219;44.500;11.188;2022-09-03T17:15:43;25.90;99.90
32865;DHT22;19219;44.500;11.188;2022-09-03T17:20:56;25.80;99.90
32865;DHT22;19219;44.500;11.188;2022-09-03T17:30:57;25.60;99.90
32865;DHT22;19219;44.500;11.188;2022-09-03T17:33:33;25.60;99.90
32865;DHT22;19219;44.500;11.188;2022-09-03T17:36:16;25.50;99.90
32865;DHT22;19219;44.500;11.188;2022-09-03T17:41:52;25.40;99.90
32865;DHT22;19219;44.500;11.188;2022-09-03T17:47:40;25.30;99.90
32865;DHT22;19219;44.500;11.188;2022-09-03T17:50:30;25.20;99.90
32865;DHT22;19219;44.500;11.188;2022-09-03T17:53:24;25.10;99.90
32865;DHT22;19219;44.500;11.188;2022-09-03T17:56:09;25.00;99.90
32865;DHT22;19219;44.500;11.188;2022-09-03T17:58:44;24.90;99.90
32865;DHT22;19219;44.500;11.188;2022-09-03T18:01:20;24.80;99.90
32865;DHT22;19219;44.500;11.188;2022-09-03T18:06:53;24.70;99.90
32865;DHT22;19219;44.500;11.188;2022-09-03T18:09:30;24.60;99.90
32865;DHT22;19219;44.500;11.188;2022-09-03T18:12:26;24.60;99.90
32865;DHT22;19219;44.500;11.188;2022-09-03T18:15:12;24.60;99.90
32865;DHT22;19219;44.500;11.188;2022-09-03T18:18:02;24.50;99.90
32865;DHT22;19219;44.500;11.188;2022-09-03T18:20:46;24.40;99.90
32865;DHT22;19219;44.500;11.188;2022-09-03T18:26:33;24.40;99.90
32865;DHT22;19219;44.500;11.188;2022-09-03T18:29:42;24.40;99.90
32865;DHT22;19219;44.500;11.188;2022-09-03T18:32:29;24.30;99.90
32865;DHT22;19219;44.500;11.188;2022-09-03T18:35:14;24.30;99.90
32865;DHT22;19219;44.500;11.188;2022-09-03T18:37:58;24.30;99.90
32865;DHT22;19219;44.500;11.188;2022-09-03T18:41:06;24.30;99.90
32865;DHT22;19219;44.500;11.188;2022-09-03T18:50:15;24.30;99.90
32865;DHT22;19219;44.500;11.188;2022-09-03T18:53:17;24.30;99.90
32865;DHT22;19219;44.500;11.188;2022-09-03T18:56:18;24.10;99.90
32865;DHT22;19219;44.500;11.188;2022-09-03T19:02:06;24.00;99.90
32865;DHT22;19219;44.500;11.188;2022-09-03T19:08:05;24.00;99.90
32865;DHT22;19219;44.500;11.188;2022-09-03T19:11:28;24.00;99.90
32865;DHT22;19219;44.500;11.188;2022-09-03T19:23:59;24.10;99.90
32865;DHT22;19219;44.500;11.188;2022-09-03T19:30:07;23.90;99.90
32865;DHT22;19219;44.500;11.188;2022-09-03T19:33:12;23.90;99.90
32865;DHT22;19219;44.500;11.188;2022-09-03T19:36:07;23.90;99.90
32865;DHT22;19219;44.500;11.188;2022-09-03T19:39:18;23.80;99.90
32865;DHT22;19219;44.500;11.188;2022-09-03T19:45:34;23.60;99.90
32865;DHT22;19219;44.500;11.188;2022-09-03T19:51:23;23.20;99.90
32865;DHT22;19219;44.500;11.188;2022-09-03T19:54:10;23.20;99.90
32865;DHT22;19219;44.500;11.188;2022-09-03T19:56:56;23.10;99.90
32865;DHT22;19219;44.500;11.188;2022-09-03T19:59:41;23.00;99.90
32865;DHT22;19219;44.500;11.188;2022-09-03T20:02:27;22.90;99.90
32865;DHT22;19219;44.500;11.188;2022-09-03T20:05:20;22.90;99.90
32865;DHT22;19219;44.500;11.188;2022-09-03T20:08:05;22.80;99.90
32865;DHT22;19219;44.500;11.188;2022-09-03T20:10:52;22.80;99.90
32865;DHT22;19219;44.500;11.188;2022-09-03T20:13:20;22.70;99.90
32865;DHT22;19219;44.500;11.188;2022-09-03T20:32:25;22.40;99.90
32865;DHT22;19219;44.500;11.188;2022-09-03T20:37:43;22.30;99.90
32865;DHT22;19219;44.500;11.188;2022-09-03T20:50:43;22.60;99.90
32865;DHT22;19219;44.500;11.188;2022-09-03T21:13:15;22.40;99.90
32865;DHT22;19219;44.500;11.188;2022-09-03T21:24:00;22.20;99.90
32865;DHT22;19219;44.500;11.188;2022-09-03T21:26:30;22.20;99.90
32865;DHT22;19219;44.500;11.188;2022-09-03T21:29:15;22.10;99.90
32865;DHT22;19219;44.500;11.188;2022-09-03T21:34:35;22.10;99.90
32865;DHT22;19219;44.500;11.188;2022-09-03T21:37:04;21.90;99.90
32865;DHT22;19219;44.500;11.188;2022-09-03T21:39:34;21.90;99.90
32865;DHT22;19219;44.500;11.188;2022-09-03T21:42:30;21.80;99.90